Time;durP1;ratioP1;P1;durP2;ratioP2;P2;SDS_P1;SDS_P2;PMS_P1;PMS_P2;Temp;Humidity;BMP_temperature;BMP_pressure;BME280_temperature;BME280_humidity;BME280_pressure;Samples;Min_cycle;Max_cycle;Signal;HPM_P1;HPM_P2
2021/10/12 00:01:36;;;;;;;36.90;20.70;;;8.00;99.90;;;;;;5051775;28;20090;-68
2021/10/12 00:04:03;;;;;;;39.00;20.85;;;8.10;99.90;;;;;;5050923;28;20039;-68
2021/10/12 00:06:28;;;;;;;35.75;20.83;;;8.00;99.90;;;;;;5050593;28;20079;-68
2021/10/12 00:08:55;;;;;;;37.17;20.55;;;8.10;99.90;;;;;;5051778;28;20494;-68
2021/10/12 00:11:21;;;;;;;31.85;19.63;;;8.10;99.90;;;;;;5051780;28;20029;-68
2021/10/12 00:13:46;;;;;;;35.90;19.10;;;8.20;99.90;;;;;;5051781;28;20091;-68
2021/10/12 00:16:12;;;;;;;33.33;19.33;;;8.30;99.90;;;;;;5055226;28;20035;-68
2021/10/12 00:18:38;;;;;;;42.35;23.67;;;8.40;99.90;;;;;;5055210;28;20125;-68
2021/10/12 00:21:04;;;;;;;41.65;23.13;;;8.40;99.90;;;;;;5055124;28;20033;-68
2021/10/12 00:23:30;;;;;;;41.33;23.05;;;8.40;99.90;;;;;;5053956;28;20129;-68
2021/10/12 00:25:56;;;;;;;39.83;22.75;;;8.40;99.90;;;;;;5054966;28;20100;-68
2021/10/12 00:28:22;;;;;;;43.55;23.52;;;8.50;99.90;;;;;;5054763;28;20050;-68
2021/10/12 00:30:47;;;;;;;36.90;22.30;;;8.60;99.90;;;;;;5055004;28;20469;-68
2021/10/12 00:33:13;;;;;;;40.78;23.05;;;8.70;99.90;;;;;;5054968;28;20037;-68
2021/10/12 00:35:39;;;;;;;39.92;23.17;;;8.60;99.90;;;;;;5054622;28;20041;-68
2021/10/12 00:38:05;;;;;;;37.80;22.85;;;8.60;99.90;;;;;;5053543;28;20078;-68
2021/10/12 00:40:30;;;;;;;41.75;22.38;;;8.60;99.90;;;;;;5053504;28;20099;-68
2021/10/12 00:42:56;;;;;;;36.65;22.63;;;8.70;99.90;;;;;;5054385;28;20478;-68
2021/10/12 00:45:24;;;;;;;45.20;23.13;;;8.60;99.90;;;;;;5054347;28;20033;-68
2021/10/12 00:48:03;;;;;;;41.63;23.85;;;8.70;99.90;;;;;;5054145;28;20418;-68
2021/10/12 00:50:33;;;;;;;36.97;22.15;;;8.70;99.90;;;;;;5053275;28;20477;-68
2021/10/12 00:53:00;;;;;;;39.50;23.35;;;8.80;99.90;;;;;;5054386;28;20043;-68
2021/10/12 00:55:26;;;;;;;44.05;24.73;;;8.70;99.90;;;;;;5053199;28;20037;-68
2021/10/12 00:57:53;;;;;;;44.05;24.30;;;8.70;99.90;;;;;;5052958;28;20037;-68
2021/10/12 01:00:19;;;;;;;46.47;25.08;;;8.70;99.90;;;;;;5054575;28;20111;-68
2021/10/12 01:02:45;;;;;;;43.95;24.17;;;8.60;99.90;;;;;;5053961;28;20029;-68
2021/10/12 01:05:12;;;;;;;40.53;23.88;;;8.60;99.90;;;;;;5054257;28;20087;-68
2021/10/12 01:07:38;;;;;;;50.95;27.63;;;8.70;99.90;;;;;;5053031;28;20064;-68
2021/10/12 01:10:06;;;;;;;47.42;27.52;;;8.60;99.90;;;;;;5052754;28;20053;-68
2021/10/12 01:12:32;;;;;;;45.55;27.38;;;8.60;99.90;;;;;;5054008;28;20037;-68
2021/10/12 01:14:58;;;;;;;48.75;27.92;;;8.50;99.90;;;;;;5052910;28;20028;-68
2021/10/12 01:17:25;;;;;;;51.78;26.58;;;8.60;99.90;;;;;;5052542;28;20033;-68
2021/10/12 01:19:51;;;;;;;50.42;27.08;;;8.50;99.90;;;;;;5052605;28;20033;-68
2021/10/12 01:22:17;;;;;;;47.42;27.77;;;8.40;99.90;;;;;;5053878;28;20087;-68
2021/10/12 01:24:42;;;;;;;51.58;28.17;;;8.40;99.90;;;;;;5053816;28;20511;-68
2021/10/12 01:27:08;;;;;;;54.45;27.40;;;8.30;99.90;;;;;;5052907;28;20129;-68
2021/10/12 01:29:34;;;;;;;52.70;27.98;;;8.40;99.90;;;;;;5053944;28;20036;-68
2021/10/12 01:32:00;;;;;;;55.58;30.88;;;8.30;99.90;;;;;;5053585;28;20039;-68
2021/10/12 01:34:26;;;;;;;54.28;30.20;;;8.30;99.90;;;;;;5052684;28;20036;-68
2021/10/12 01:36:52;;;;;;;59.30;31.17;;;8.30;99.90;;;;;;5053715;28;20123;-68
2021/10/12 01:39:19;;;;;;;55.17;31.27;;;8.30;99.90;;;;;;5052158;28;20128;-68
2021/10/12 01:41:46;;;;;;;59.05;31.55;;;8.30;99.90;;;;;;5053536;28;20442;-68
2021/10/12 01:44:14;;;;;;;60.60;31.63;;;8.30;99.90;;;;;;5052367;28;20025;-68
2021/10/12 01:46:40;;;;;;;55.33;31.00;;;8.30;99.90;;;;;;5053503;28;20033;-68
2021/10/12 01:49:07;;;;;;;55.22;30.58;;;8.30;99.90;;;;;;5053138;28;20108;-68
2021/10/12 01:51:33;;;;;;;63.13;31.65;;;8.30;99.90;;;;;;5053285;28;20037;-68
2021/10/12 01:54:13;;;;;;;54.40;31.52;;;8.20;99.90;;;;;;5053147;28;20079;-68
2021/10/12 01:56:39;;;;;;;59.25;31.30;;;8.20;99.90;;;;;;5053387;28;20106;-68
2021/10/12 01:59:05;;;;;;;61.95;31.67;;;8.20;99.90;;;;;;5051797;28;20456;-68
2021/10/12 02:01:31;;;;;;;59.35;31.10;;;8.20;99.90;;;;;;5053125;28;20124;-68
2021/10/12 02:03:56;;;;;;;68.03;36.47;;;8.20;99.90;;;;;;5051673;28;20032;-68
2021/10/12 02:06:22;;;;;;;63.65;33.88;;;8.20;99.90;;;;;;5053197;28;20056;-68
2021/10/12 02:08:48;;;;;;;63.25;33.92;;;8.20;99.90;;;;;;5051638;28;20037;-68
2021/10/12 02:11:14;;;;;;;62.90;34.15;;;8.20;99.90;;;;;;5051748;28;20086;-68
2021/10/12 02:13:40;;;;;;;65.20;34.70;;;8.20;99.90;;;;;;5051679;28;20139;-68
2021/10/12 02:16:05;;;;;;;59.78;33.70;;;8.20;99.90;;;;;;5052956;28;20025;-68
2021/10/12 02:18:31;;;;;;;61.15;32.45;;;8.10;99.90;;;;;;5052582;28;20041;-68
2021/10/12 02:20:57;;;;;;;63.35;34.03;;;8.10;99.90;;;;;;5051411;28;20504;-68
2021/10/12 02:23:23;;;;;;;59.90;33.88;;;8.00;99.90;;;;;;5052906;28;20543;-68
2021/10/12 02:25:48;;;;;;;59.97;33.42;;;8.00;99.90;;;;;;5051699;28;20024;-68
2021/10/12 02:28:14;;;;;;;59.03;34.33;;;8.00;99.90;;;;;;5052618;28;20080;-68
2021/10/12 02:30:40;;;;;;;61.85;33.60;;;8.00;99.90;;;;;;5051369;28;20067;-68
2021/10/12 02:33:05;;;;;;;60.60;32.85;;;8.00;99.90;;;;;;5052455;28;20040;-68
2021/10/12 02:35:31;;;;;;;59.85;34.15;;;8.00;99.90;;;;;;5052466;28;20033;-68
2021/10/12 02:37:57;;;;;;;60.05;34.05;;;8.00;99.90;;;;;;5052296;28;20037;-68
2021/10/12 02:40:23;;;;;;;62.40;32.67;;;8.00;99.90;;;;;;5051459;28;20551;-68
2021/10/12 02:42:49;;;;;;;56.67;32.50;;;8.00;99.90;;;;;;5051569;28;20420;-68
2021/10/12 02:45:15;;;;;;;61.88;32.85;;;8.10;99.90;;;;;;5052400;28;20029;-68
2021/10/12 02:47:40;;;;;;;55.53;31.23;;;8.00;99.90;;;;;;5052480;28;20059;-68
2021/10/12 02:50:08;;;;;;;59.90;32.38;;;8.00;99.90;;;;;;5052316;28;20123;-68
2021/10/12 02:52:35;;;;;;;63.17;33.13;;;8.10;99.90;;;;;;5052442;28;20056;-68
2021/10/12 02:55:02;;;;;;;61.42;32.53;;;8.00;99.90;;;;;;5052409;28;20074;-68
2021/10/12 02:57:32;;;;;;;54.95;30.38;;;8.10;99.90;;;;;;5052194;28;20107;-68
2021/10/12 02:59:59;;;;;;;55.67;30.60;;;8.10;99.90;;;;;;5052040;28;20033;-68
2021/10/12 03:02:25;;;;;;;51.17;28.88;;;8.10;99.90;;;;;;5052157;28;20044;-68
2021/10/12 03:04:51;;;;;;;44.45;26.92;;;8.20;99.90;;;;;;5052610;28;20033;-68
2021/10/12 03:07:17;;;;;;;46.08;28.13;;;8.30;99.90;;;;;;5051953;28;20044;-68
2021/10/12 03:09:43;;;;;;;42.20;25.55;;;8.30;99.90;;;;;;5052096;28;20167;-68
2021/10/12 03:12:09;;;;;;;46.88;25.85;;;8.40;99.90;;;;;;5051039;28;20120;-68
2021/10/12 03:14:39;;;;;;;45.53;25.65;;;8.30;99.90;;;;;;5052026;28;20036;-68
2021/10/12 03:17:05;;;;;;;45.88;26.38;;;8.30;99.90;;;;;;5052202;28;20021;-68
2021/10/12 03:19:31;;;;;;;41.78;25.00;;;8.20;99.90;;;;;;5051883;28;20084;-68
2021/10/12 03:22:07;;;;;;;37.05;22.50;;;8.20;99.90;;;;;;5050703;28;20118;-68
2021/10/12 03:24:33;;;;;;;39.53;21.60;;;8.20;99.90;;;;;;5050767;28;20037;-68
2021/10/12 03:26:59;;;;;;;35.97;22.10;;;8.20;99.90;;;;;;5051773;28;20044;-68
2021/10/12 03:29:24;;;;;;;46.33;22.10;;;8.20;99.90;;;;;;5050725;28;20025;-68
2021/10/12 03:31:50;;;;;;;37.80;21.58;;;8.30;99.90;;;;;;5052187;28;20037;-68
2021/10/12 03:34:16;;;;;;;45.80;23.25;;;8.30;99.90;;;;;;5051985;28;20116;-68
2021/10/12 03:36:42;;;;;;;36.92;22.42;;;8.30;99.90;;;;;;5050876;28;20044;-68
2021/10/12 03:39:07;;;;;;;38.00;21.88;;;8.30;99.90;;;;;;5051849;28;20535;-68
2021/10/12 03:41:33;;;;;;;42.40;24.00;;;8.30;99.90;;;;;;5050758;28;20033;-68
2021/10/12 03:43:59;;;;;;;40.05;22.65;;;8.30;99.90;;;;;;5051971;28;20044;-68
2021/10/12 03:46:24;;;;;;;44.38;25.33;;;8.30;99.90;;;;;;5050458;28;20043;-68
2021/10/12 03:48:50;;;;;;;41.58;24.33;;;8.30;99.90;;;;;;5050373;28;20033;-68
2021/10/12 03:51:16;;;;;;;77.90;25.80;;;8.30;99.90;;;;;;5055108;28;20025;-68
2021/10/12 03:53:42;;;;;;;44.05;25.55;;;8.20;99.90;;;;;;5054635;28;20388;-68
2021/10/12 03:56:07;;;;;;;41.67;23.15;;;8.20;99.90;;;;;;5055617;28;20041;-68
2021/10/12 03:58:33;;;;;;;43.03;24.70;;;8.30;99.90;;;;;;5054416;28;20025;-68
2021/10/12 04:00:59;;;;;;;43.95;23.30;;;8.30;99.90;;;;;;5055265;28;20033;-68
2021/10/12 04:03:25;;;;;;;40.92;22.75;;;8.30;99.90;;;;;;5055290;28;20067;-68
2021/10/12 04:05:50;;;;;;;41.92;23.92;;;8.30;99.90;;;;;;5054135;28;20037;-68
2021/10/12 04:08:16;;;;;;;40.25;24.30;;;8.30;99.90;;;;;;5055084;28;20131;-68
2021/10/12 04:10:42;;;;;;;38.78;22.52;;;8.30;99.90;;;;;;5054280;28;20064;-68
2021/10/12 04:13:08;;;;;;;38.78;23.05;;;8.40;99.90;;;;;;5055347;28;20029;-68
2021/10/12 04:15:34;;;;;;;41.42;24.08;;;8.30;99.90;;;;;;5053848;28;20036;-68
2021/10/12 04:18:01;;;;;;;42.88;23.98;;;8.30;99.90;;;;;;5054978;28;20107;-68
2021/10/12 04:20:27;;;;;;;54.03;25.27;;;8.30;99.90;;;;;;5054076;28;20108;-68
2021/10/12 04:22:56;;;;;;;48.50;26.10;;;8.20;99.90;;;;;;5054040;28;20071;-68
2021/10/12 04:25:23;;;;;;;46.97;26.35;;;8.20;99.90;;;;;;5054966;28;20060;-68
2021/10/12 04:27:51;;;;;;;42.17;24.35;;;8.20;99.90;;;;;;5055175;28;20040;-68
2021/10/12 04:30:17;;;;;;;48.22;25.25;;;8.30;99.90;;;;;;5054789;28;20033;-68
2021/10/12 04:32:42;;;;;;;46.05;25.75;;;8.40;99.90;;;;;;5053899;28;20087;-68
2021/10/12 04:35:08;;;;;;;48.05;25.92;;;8.40;99.90;;;;;;5054864;28;20457;-68
2021/10/12 04:37:34;;;;;;;48.75;26.55;;;8.50;99.90;;;;;;5054939;28;20124;-68
2021/10/12 04:40:00;;;;;;;46.75;25.80;;;8.50;99.90;;;;;;5053755;28;20025;-68
2021/10/12 04:42:26;;;;;;;43.35;26.42;;;8.60;99.90;;;;;;5054539;28;20033;-68
2021/10/12 04:44:54;;;;;;;51.88;30.27;;;8.60;99.90;;;;;;5054391;28;20036;-68
2021/10/12 04:47:21;;;;;;;48.75;27.13;;;8.70;99.90;;;;;;5054076;28;20094;-68
2021/10/12 04:49:48;;;;;;;51.03;27.92;;;8.70;99.90;;;;;;5054371;28;20398;-68
2021/10/12 04:52:14;;;;;;;45.17;26.55;;;8.60;99.90;;;;;;5054200;28;20029;-68
2021/10/12 04:54:40;;;;;;;46.47;25.75;;;8.70;99.90;;;;;;5051470;28;20022;-66
2021/10/12 04:57:05;;;;;;;45.78;26.85;;;8.80;99.90;;;;;;5040946;28;20520;-67
2021/10/12 04:59:32;;;;;;;51.05;27.90;;;8.70;99.90;;;;;;5059049;28;20057;-72
2021/10/12 05:01:58;;;;;;;54.50;30.58;;;8.80;99.90;;;;;;5052185;28;20043;-67
2021/10/12 05:04:23;;;;;;;50.80;27.05;;;8.80;99.90;;;;;;5034162;28;20034;-65
2021/10/12 05:06:49;;;;;;;46.47;27.27;;;8.70;99.90;;;;;;5049306;28;20370;-68
2021/10/12 05:09:15;;;;;;;47.42;25.30;;;8.60;99.90;;;;;;5051926;28;20143;-67
2021/10/12 05:11:41;;;;;;;53.13;28.35;;;8.60;99.90;;;;;;5052258;28;20037;-67
2021/10/12 05:14:07;;;;;;;52.47;27.13;;;8.60;99.90;;;;;;5039640;28;20064;-67
2021/10/12 05:16:33;;;;;;;48.38;27.70;;;8.50;99.90;;;;;;5041236;28;20029;-66
2021/10/12 05:19:00;;;;;;;50.58;26.85;;;8.40;99.90;;;;;;5043163;28;20049;-66
2021/10/12 05:21:31;;;;;;;49.65;28.45;;;8.50;99.90;;;;;;5035821;28;20057;-66
2021/10/12 05:23:58;;;;;;;59.20;30.40;;;8.60;99.90;;;;;;5041755;28;20040;-66
2021/10/12 05:26:24;;;;;;;50.13;28.10;;;8.60;99.90;;;;;;5048126;28;20431;-66
2021/10/12 05:28:51;;;;;;;52.72;27.75;;;8.50;99.90;;;;;;5052621;28;20091;-66
2021/10/12 05:31:21;;;;;;;45.80;25.35;;;8.30;99.90;;;;;;5047029;28;20533;-68
2021/10/12 05:33:48;;;;;;;49.83;25.55;;;8.40;99.90;;;;;;5035175;28;20036;-67
2021/10/12 05:36:15;;;;;;;73.15;36.78;;;8.50;99.90;;;;;;5038305;28;20434;-67
2021/10/12 05:38:41;;;;;;;59.78;33.97;;;8.40;99.90;;;;;;5047969;28;20041;-67
2021/10/12 05:41:10;;;;;;;38.97;23.38;;;8.50;99.90;;;;;;5047433;28;20054;-67
2021/10/12 05:43:38;;;;;;;46.10;24.23;;;8.50;99.90;;;;;;5042998;28;20091;-67
2021/10/12 05:46:05;;;;;;;40.70;24.20;;;8.50;99.90;;;;;;5033070;28;20025;-67
2021/10/12 05:48:31;;;;;;;43.58;24.33;;;8.50;99.90;;;;;;5032742;28;20045;-67
2021/10/12 05:50:57;;;;;;;50.72;25.92;;;8.40;99.90;;;;;;5048498;28;20390;-67
2021/10/12 05:53:27;;;;;;;52.67;27.80;;;8.40;99.90;;;;;;5033266;28;20029;-66
2021/10/12 05:56:10;;;;;;;53.65;27.60;;;8.40;99.90;;;;;;5033599;28;20044;-66
2021/10/12 05:58:43;;;;;;;50.53;25.98;;;8.40;99.90;;;;;;5046704;28;20386;-66
2021/10/12 06:01:11;;;;;;;50.70;26.25;;;8.40;99.90;;;;;;5033015;28;20033;-67
2021/10/12 06:03:38;;;;;;;44.95;25.13;;;8.50;99.90;;;;;;5048511;28;20033;-67
2021/10/12 06:06:03;;;;;;;48.67;27.15;;;8.60;99.90;;;;;;5033261;28;20077;-67
2021/10/12 06:08:31;;;;;;;68.82;36.20;;;8.60;99.90;;;;;;5040149;28;20122;-67
2021/10/12 06:11:01;;;;;;;50.50;26.52;;;8.60;99.90;;;;;;5033006;28;20499;-67
2021/10/12 06:13:28;;;;;;;52.00;26.48;;;8.70;99.90;;;;;;5032658;28;20118;-67
2021/10/12 06:15:55;;;;;;;50.90;26.25;;;8.70;99.90;;;;;;5048065;28;20156;-67
2021/10/12 06:18:21;;;;;;;51.97;26.25;;;8.60;99.90;;;;;;5032474;28;20052;-67
2021/10/12 06:20:48;;;;;;;45.08;24.27;;;8.60;99.90;;;;;;5032964;28;20040;-67
2021/10/12 06:23:15;;;;;;;48.63;26.55;;;8.70;99.90;;;;;;5047939;28;20796;-67
2021/10/12 06:25:41;;;;;;;51.58;25.65;;;8.60;99.90;;;;;;5047717;28;20044;-67
2021/10/12 06:28:06;;;;;;;54.78;28.20;;;8.60;99.90;;;;;;5047683;28;20471;-67
2021/10/12 06:30:34;;;;;;;55.40;27.67;;;8.60;99.90;;;;;;5032972;28;20049;-67
2021/10/12 06:33:00;;;;;;;52.28;28.27;;;8.60;99.90;;;;;;5032867;28;20371;-67
2021/10/12 06:35:30;;;;;;;52.45;28.27;;;8.60;99.90;;;;;;5032593;28;20128;-68
2021/10/12 06:38:00;;;;;;;58.30;28.63;;;8.60;99.90;;;;;;5032548;28;20064;-68
2021/10/12 06:40:27;;;;;;;57.10;28.98;;;8.60;99.90;;;;;;5032501;28;20044;-68
2021/10/12 06:42:53;;;;;;;59.28;28.92;;;8.60;99.90;;;;;;5032507;28;20068;-67
2021/10/12 06:45:20;;;;;;;54.63;26.95;;;8.60;99.90;;;;;;5032430;28;20482;-68
2021/10/12 06:47:47;;;;;;;50.03;26.48;;;8.60;99.90;;;;;;5032007;28;20048;-67
2021/10/12 06:50:14;;;;;;;54.25;27.50;;;8.70;99.90;;;;;;5032164;28;20049;-68
2021/10/12 06:52:40;;;;;;;58.53;28.00;;;8.70;99.90;;;;;;5047538;28;20033;-67
2021/10/12 06:55:08;;;;;;;58.72;27.85;;;8.70;99.90;;;;;;5047413;28;20025;-68
2021/10/12 06:57:35;;;;;;;50.28;26.30;;;8.70;99.90;;;;;;5043563;28;20029;-68
2021/10/12 07:00:03;;;;;;;62.47;27.42;;;8.70;99.90;;;;;;5051929;28;20029;-68
2021/10/12 07:02:28;;;;;;;53.65;28.77;;;8.70;99.90;;;;;;5050796;28;20045;-68
2021/10/12 07:04:54;;;;;;;53.83;27.30;;;8.80;99.90;;;;;;5052413;28;20442;-68
2021/10/12 07:07:20;;;;;;;61.05;28.95;;;8.80;99.90;;;;;;5052083;28;20466;-68
2021/10/12 07:09:45;;;;;;;53.38;26.75;;;8.80;99.90;;;;;;5051738;28;20045;-68
2021/10/12 07:12:11;;;;;;;61.45;27.63;;;8.90;99.90;;;;;;5051977;28;20105;-68
2021/10/12 07:14:37;;;;;;;52.17;26.20;;;8.90;99.90;;;;;;5067340;28;20048;-68
2021/10/12 07:17:03;;;;;;;55.05;26.90;;;9.00;99.90;;;;;;5051992;28;20672;-68
2021/10/12 07:19:29;;;;;;;53.75;26.17;;;9.00;99.90;;;;;;5051585;28;20041;-68
2021/10/12 07:21:56;;;;;;;48.72;24.48;;;9.00;99.90;;;;;;5050622;28;20040;-68
2021/10/12 07:24:23;;;;;;;43.00;23.35;;;9.30;99.90;;;;;;5052634;28;20029;-68
2021/10/12 07:26:49;;;;;;;46.00;23.70;;;9.30;99.90;;;;;;5055826;28;20028;-68
2021/10/12 07:29:16;;;;;;;48.30;23.48;;;9.30;99.90;;;;;;5070913;28;20047;-68
2021/10/12 07:31:42;;;;;;;47.05;22.70;;;9.40;99.90;;;;;;5055916;28;20032;-68
2021/10/12 07:34:09;;;;;;;39.70;21.30;;;9.50;99.90;;;;;;5062446;28;20439;-68
2021/10/12 07:36:37;;;;;;;40.38;21.40;;;9.50;99.90;;;;;;5044482;28;20033;-69
2021/10/12 07:39:05;;;;;;;42.28;19.77;;;9.60;99.90;;;;;;5046149;28;20029;-74
2021/10/12 07:41:32;;;;;;;34.03;18.85;;;9.70;99.90;;;;;;5035738;28;20061;-74
2021/10/12 07:43:58;;;;;;;41.08;20.80;;;9.70;99.90;;;;;;5050888;28;20095;-78
2021/10/12 07:46:24;;;;;;;33.63;18.63;;;9.70;99.90;;;;;;5040434;28;20067;-77
2021/10/12 07:48:53;;;;;;;31.55;18.05;;;9.80;99.90;;;;;;5061525;28;20453;-78
2021/10/12 07:51:20;;;;;;;31.25;17.70;;;9.90;99.90;;;;;;5054097;28;20513;-79
2021/10/12 07:53:47;;;;;;;35.90;19.08;;;10.00;99.90;;;;;;5054174;28;20037;-81
2021/10/12 07:56:19;;;;;;;34.80;20.10;;;9.80;99.90;;;;;;5055463;28;20029;-80
2021/10/12 07:58:44;;;;;;;34.35;17.75;;;9.80;99.90;;;;;;5048060;28;20044;-76
2021/10/12 08:01:10;;;;;;;35.15;17.55;;;9.90;99.90;;;;;;5053406;28;20029;-78
2021/10/12 08:03:36;;;;;;;35.30;19.02;;;10.00;99.90;;;;;;5050966;28;20045;-76
2021/10/12 08:06:02;;;;;;;30.67;16.67;;;10.10;99.90;;;;;;5042427;28;20499;-79
2021/10/12 08:08:29;;;;;;;31.15;17.17;;;10.20;99.90;;;;;;5053474;28;20052;-75
2021/10/12 08:10:55;;;;;;;30.75;17.55;;;10.30;99.90;;;;;;5039210;28;20036;-76
2021/10/12 08:13:23;;;;;;;31.45;18.50;;;10.40;99.90;;;;;;5060128;28;20041;-71
2021/10/12 08:15:53;;;;;;;35.78;17.27;;;10.40;99.90;;;;;;5047478;28;20373;-72
2021/10/12 08:18:20;;;;;;;37.92;18.45;;;10.30;99.90;;;;;;5035866;28;20049;-71
2021/10/12 08:20:49;;;;;;;34.13;17.35;;;10.20;99.90;;;;;;5049139;28;20091;-73
2021/10/12 08:23:15;;;;;;;34.53;19.85;;;10.20;99.90;;;;;;5048504;28;20065;-73
2021/10/12 08:25:41;;;;;;;36.13;19.83;;;10.10;99.90;;;;;;5033775;28;20547;-72
2021/10/12 08:28:07;;;;;;;37.13;20.73;;;10.10;99.90;;;;;;5032720;28;20029;-75
2021/10/12 08:30:33;;;;;;;37.03;20.52;;;10.10;99.90;;;;;;5034416;28;20033;-75
2021/10/12 08:32:58;;;;;;;42.25;22.15;;;10.10;99.90;;;;;;5044951;28;20027;-78
2021/10/12 08:35:24;;;;;;;41.92;21.95;;;10.20;99.90;;;;;;5049731;28;20048;-78
2021/10/12 08:37:50;;;;;;;41.72;20.85;;;10.20;99.90;;;;;;5066443;28;20114;-81
2021/10/12 08:40:17;;;;;;;36.65;19.55;;;10.30;99.90;;;;;;5059337;28;20030;-77
2021/10/12 08:42:52;;;;;;;36.97;17.92;;;10.30;99.90;;;;;;5052956;28;20029;-76
2021/10/12 08:45:21;;;;;;;30.88;17.55;;;10.40;99.90;;;;;;5045430;28;20028;-76
2021/10/12 08:47:49;;;;;;;33.20;18.90;;;10.50;99.90;;;;;;5042947;28;20517;-76
2021/10/12 08:50:22;;;;;;;28.65;16.40;;;10.60;99.90;;;;;;5033532;28;20082;-75
2021/10/12 08:52:49;;;;;;;36.13;17.90;;;10.50;99.90;;;;;;5048602;28;20029;-76
2021/10/12 08:55:15;;;;;;;34.47;16.15;;;10.60;99.90;;;;;;5042368;28;20091;-77
2021/10/12 08:57:44;;;;;;;30.33;15.50;;;10.80;99.90;;;;;;5050941;28;20037;-78
2021/10/12 09:00:18;;;;;;;27.52;14.32;;;10.90;99.90;;;;;;5038637;28;20021;-77
2021/10/12 09:05:56;;;;;;;30.25;12.98;;;11.10;99.90;;;;;;5049128;28;20490;-76
2021/10/12 09:08:28;;;;;;;29.52;13.10;;;11.10;99.90;;;;;;5067981;28;20040;-77
2021/10/12 09:10:56;;;;;;;25.10;14.35;;;11.30;99.90;;;;;;5053069;28;20029;-77
2021/10/12 09:13:22;;;;;;;30.23;14.07;;;11.30;99.90;;;;;;5058761;28;20065;-77
2021/10/12 09:16:14;;;;;;;25.13;13.10;;;11.40;99.90;;;;;;5048207;28;20458;-77
2021/10/12 09:18:50;;;;;;;20.23;12.02;;;11.40;99.90;;;;;;4980857;28;1483666;-76
2021/10/12 09:21:25;;;;;;;26.83;13.48;;;11.40;99.90;;;;;;5033943;28;20091;-75
2021/10/12 09:24:03;;;;;;;25.90;13.70;;;11.40;99.90;;;;;;5034036;28;20037;-77
2021/10/12 09:26:34;;;;;;;28.02;13.52;;;11.50;99.90;;;;;;5047575;28;20037;-77
2021/10/12 09:29:30;;;;;;;27.63;12.60;;;11.60;99.90;;;;;;5033652;28;20049;-77
2021/10/12 09:31:58;;;;;;;19.63;10.73;;;11.60;99.90;;;;;;5032513;28;20293;-78
2021/10/12 09:34:28;;;;;;;20.73;10.70;;;11.60;99.90;;;;;;5033855;28;20037;-77
2021/10/12 09:36:55;;;;;;;18.67;9.85;;;11.70;99.90;;;;;;5048913;28;20508;-77
2021/10/12 09:39:45;;;;;;;25.77;10.82;;;11.60;99.90;;;;;;5033473;28;20030;-77
2021/10/12 09:42:17;;;;;;;21.05;9.40;;;11.90;99.90;;;;;;5048835;28;20041;-78
2021/10/12 09:44:58;;;;;;;16.73;8.27;;;12.10;99.90;;;;;;5048349;28;20060;-79
2021/10/12 09:47:25;;;;;;;14.05;7.32;;;12.20;99.90;;;;;;5047357;28;20041;-79
2021/10/12 09:50:10;;;;;;;15.75;7.53;;;12.10;99.90;;;;;;5048789;28;20030;-77
2021/10/12 09:52:41;;;;;;;17.58;7.60;;;12.10;99.90;;;;;;5033206;28;20033;-77
2021/10/12 09:55:08;;;;;;;17.38;7.32;;;12.10;99.90;;;;;;5033273;28;20034;-77
2021/10/12 09:57:35;;;;;;;14.95;6.82;;;12.10;99.90;;;;;;5048437;28;20034;-77
2021/10/12 10:00:01;;;;;;;12.18;6.28;;;12.20;99.90;;;;;;5048299;28;20076;-78
2021/10/12 10:02:33;;;;;;;11.32;7.13;;;12.20;99.90;;;;;;5033203;28;20026;-77
2021/10/12 10:04:59;;;;;;;14.27;6.63;;;12.20;99.90;;;;;;5048043;28;20071;-76
2021/10/12 10:07:30;;;;;;;23.05;8.20;;;12.20;99.90;;;;;;5048144;28;20072;-77
2021/10/12 10:10:04;;;;;;;12.85;7.43;;;12.40;99.90;;;;;;5048295;28;20034;-75
2021/10/12 10:12:32;;;;;;;14.38;6.28;;;12.50;99.90;;;;;;5032523;28;20034;-77
2021/10/12 10:14:58;;;;;;;18.20;7.57;;;12.60;99.90;;;;;;5032783;28;20064;-76
2021/10/12 10:17:25;;;;;;;17.27;7.20;;;12.70;99.90;;;;;;5033027;28;20061;-76
2021/10/12 10:19:52;;;;;;;17.08;5.78;;;12.80;99.90;;;;;;5047998;28;20041;-76
2021/10/12 10:22:38;;;;;;;13.30;5.80;;;12.90;99.90;;;;;;5048075;28;20467;-79
2021/10/12 10:25:40;;;;;;;12.55;4.57;;;12.90;99.90;;;;;;5056357;28;20057;-77
2021/10/12 10:28:19;;;;;;;10.20;4.57;;;12.80;99.90;;;;;;5032730;28;20025;-73
2021/10/12 10:30:59;;;;;;;10.88;4.32;;;12.80;99.90;;;;;;5032961;28;20034;-75
2021/10/12 10:33:37;;;;;;;11.43;3.90;;;12.80;99.90;;;;;;5032548;28;20543;-73
2021/10/12 10:39:38;;;;;;;9.50;4.25;;;12.90;99.90;;;;;;5029317;28;20132;-78
2021/10/12 10:42:11;;;;;;;9.90;4.65;;;12.90;99.90;;;;;;5032122;28;20033;-75
2021/10/12 10:45:06;;;;;;;7.18;4.13;;;13.00;99.90;;;;;;5015095;28;20112;-74
2021/10/12 10:47:41;;;;;;;8.98;4.35;;;13.00;99.90;;;;;;5066939;28;20370;-74
2021/10/12 10:50:28;;;;;;;13.50;5.25;;;13.00;99.90;;;;;;5052305;28;20033;-76
2021/10/12 10:52:59;;;;;;;12.18;4.53;;;12.90;99.90;;;;;;5052527;28;20037;-77
2021/10/12 10:55:28;;;;;;;9.07;4.15;;;12.90;99.90;;;;;;5065026;28;20421;-79
2021/10/12 10:58:19;;;;;;;7.00;3.97;;;12.80;99.90;;;;;;5072140;28;20040;-76
2021/10/12 11:00:49;;;;;;;8.43;3.23;;;12.80;99.90;;;;;;5072420;28;20602;-76
2021/10/12 11:03:36;;;;;;;7.40;3.50;;;12.80;99.90;;;;;;5067479;28;20104;-77
2021/10/12 11:06:10;;;;;;;7.10;3.30;;;12.90;99.90;;;;;;5067336;28;20378;-73
2021/10/12 11:08:39;;;;;;;7.72;3.80;;;12.90;99.90;;;;;;5051448;28;20041;-73
2021/10/12 11:11:08;;;;;;;6.68;3.00;;;13.00;99.90;;;;;;5050485;28;20040;-74
2021/10/12 11:13:45;;;;;;;17.30;3.20;;;13.00;99.90;;;;;;5067050;28;20043;-75
2021/10/12 11:16:16;;;;;;;13.30;3.13;;;13.10;99.90;;;;;;5050491;28;20040;-76
2021/10/12 11:18:45;;;;;;;7.35;3.22;;;13.10;99.90;;;;;;5066998;28;20498;-75
2021/10/12 11:21:16;;;;;;;5.50;3.33;;;12.90;99.90;;;;;;5052147;28;20115;-73
2021/10/12 11:23:50;;;;;;;6.32;3.10;;;12.80;99.90;;;;;;5052280;28;20029;-75
2021/10/12 11:26:22;;;;;;;12.65;3.28;;;12.80;99.90;;;;;;5070710;28;20032;-76
2021/10/12 11:28:53;;;;;;;12.98;4.05;;;13.00;99.90;;;;;;5062769;28;20029;-71
2021/10/12 11:31:26;;;;;;;15.15;3.47;;;13.10;99.90;;;;;;5051729;28;20589;-71
2021/10/12 11:33:59;;;;;;;14.07;3.03;;;12.80;99.90;;;;;;5034594;28;20478;-72
2021/10/12 11:36:31;;;;;;;16.90;4.22;;;12.90;99.90;;;;;;5050766;28;20031;-72
2021/10/12 11:39:01;;;;;;;14.88;4.32;;;12.80;99.90;;;;;;5051769;28;20505;-72
2021/10/12 11:41:35;;;;;;;10.60;2.95;;;12.70;99.90;;;;;;5051586;28;20049;-72
2021/10/12 11:44:21;;;;;;;9.20;3.38;;;12.60;99.90;;;;;;5050422;28;20025;-73
2021/10/12 11:46:54;;;;;;;12.40;3.60;;;12.60;99.90;;;;;;5050350;28;20478;-73
2021/10/12 11:49:23;;;;;;;9.98;3.33;;;12.60;99.90;;;;;;5051278;28;20033;-73
2021/10/12 11:51:50;;;;;;;12.10;3.55;;;12.60;99.90;;;;;;5051476;28;20099;-73
2021/10/12 11:54:27;;;;;;;8.93;3.40;;;12.70;99.90;;;;;;5050439;28;20029;-73
2021/10/12 11:56:53;;;;;;;11.50;4.05;;;12.70;99.90;;;;;;5050364;28;20462;-74
2021/10/12 11:59:19;;;;;;;9.73;3.72;;;12.60;99.90;;;;;;5051391;28;20499;-73
2021/10/12 12:01:46;;;;;;;12.60;4.10;;;12.70;99.90;;;;;;5050163;28;20033;-74
2021/10/12 12:04:29;;;;;;;10.88;3.60;;;12.60;99.90;;;;;;5051769;28;20041;-73
2021/10/12 12:06:59;;;;;;;11.10;3.20;;;12.70;99.90;;;;;;5051477;28;20116;-73
2021/10/12 12:09:25;;;;;;;12.68;4.22;;;12.70;99.90;;;;;;5051186;28;20068;-73
2021/10/12 12:11:52;;;;;;;7.35;3.40;;;12.60;99.90;;;;;;5056444;28;20040;-73
2021/10/12 12:14:26;;;;;;;11.82;3.42;;;12.50;99.90;;;;;;5057227;28;20050;-74
2021/10/12 12:17:19;;;;;;;9.30;3.50;;;12.40;99.90;;;;;;5055778;28;20080;-73
2021/10/12 12:19:57;;;;;;;10.75;3.85;;;12.30;99.90;;;;;;5055235;28;20049;-73
2021/10/12 12:22:27;;;;;;;13.20;4.35;;;12.30;99.90;;;;;;5057479;28;20056;-73
2021/10/12 12:25:02;;;;;;;9.18;3.65;;;12.40;99.90;;;;;;5056572;28;20033;-73
2021/10/12 12:27:34;;;;;;;10.20;3.65;;;12.50;99.90;;;;;;5057077;28;20045;-73
2021/10/12 12:30:09;;;;;;;12.30;3.83;;;12.50;99.90;;;;;;5056547;28;20102;-74
2021/10/12 12:32:37;;;;;;;8.88;4.03;;;12.60;99.90;;;;;;5053410;28;20071;-73
2021/10/12 12:35:07;;;;;;;12.82;3.90;;;12.60;99.90;;;;;;5053461;28;20037;-73
2021/10/12 12:37:33;;;;;;;7.38;4.68;;;12.60;99.90;;;;;;5054158;28;20466;-73
2021/10/12 12:39:59;;;;;;;12.77;4.68;;;12.60;99.90;;;;;;5070175;28;20072;-73
2021/10/12 12:42:37;;;;;;;8.98;4.03;;;12.50;99.90;;;;;;5069958;28;20147;-73
2021/10/12 12:45:12;;;;;;;12.88;4.50;;;12.30;99.90;;;;;;5057840;28;20036;-73
2021/10/12 12:47:49;;;;;;;15.65;4.78;;;12.30;99.90;;;;;;5047572;28;20580;-69
2021/10/12 12:50:15;;;;;;;9.52;3.70;;;12.20;99.90;;;;;;5058212;28;20032;-70